Aérodrome :
LOGIN :

S'inscrire | Disclaimer

   EN    FR    IT 

 










Légende :    VFR   VFR Marginal   IFR   IFR Intensif   IFR Très Intensif
Visi : 
Plafond : 
>= 8 km
>= 3000ft
5 à 8 km
1000 à 3000 ft
1500m à 5 km
500 à 1000 ft
800 à 1500m
200 à 500 ft
< 800m
< 200 ft
Symboles :   Orages  Brouillard  Fortes neiges  Fortes précipitations  Vent > 20 kt
SIGMETs :   Divers  Orages  Givrage  Turbulence  Onde Orograph.  Cendres Volcan.






- Altitude de l'aérodrome : 160 ft
- Code IATA : LRT


LFRH - Lorient Lann Bihoue

DERNIER METAR :
  • 072200Z AUTO 23014KT 9999 OVC022 12/09 Q1017 BECMG 22015G30KT BKN009 OVC016

METARs EXPIRÉS :
  • 072130Z AUTO 23012KT 9999 OVC024 11/09 Q1017 BECMG 22015G30KT BKN009 OVC016
  • 072100Z AUTO 23010KT 9999 OVC024 11/08 Q1017 BECMG 22015G30KT BKN009 OVC016
  • 072030Z AUTO 24012KT 9999 OVC022 11/08 Q1017 BECMG 22015G30KT BKN009 OVC016
  • 072000Z AUTO 22011KT 9999 OVC023 11/08 Q1017 BECMG 22015G30KT BKN009 OVC016
  • 071930Z AUTO 22009KT 9999 OVC025 11/08 Q1018 BECMG 22015G30KT BKN009 OVC016
  • 071900Z AUTO 23007KT 9999 OVC026 11/09 Q1018 NOSIG

TAF TAF LFRH
Valide du 07 à 18h jusqu'au 08 à 18h UTC


071700Z 0718/0818 24008KT 9999 SCT018 BKN028
BECMG 0721/0724 22015G30KT BKN009 OVC016
BECMG 0801/0803 2000 RADZ BKN002 OVC005
PROB40
TEMPO 0802/0805 1000 +DZ VV///
BECMG 0805/0808 27012KT 9999 NSW BKN020 BKN050
BECMG 0811/0814 27020G35KT
TEMPO 0815/0818 27025G40KT 4000 SHRA BKN015CB



MET'MAP, la Météo Aéronautique d'un coup d'oeil ! - Copyright ORBIFLY Décembre 2007 - Disclaimer

ORBIFLY MET'MAP TEAM :

Programmation & Développement : Alexandra Zaïnal
Sur une idée originale de : Baudouin d'Aumeries
Assistance à la programmation : Marc-Olivier Méhu
Soutien technique & logistique : Manuel Goepfert

Contact : metmap@orbifly.com




SOURCES & CREDITS :

   NOAA